Time;durP1;ratioP1;P1;durP2;ratioP2;P2;SDS_P1;SDS_P2;PMS_P1;PMS_P2;Temp;Humidity;BMP_temperature;BMP_pressure;BME280_temperature;BME280_humidity;BME280_pressure;Samples;Min_cycle;Max_cycle;Signal;HPM_P1;HPM_P2
2022/10/20 00:01:59;;;;;;;26.30;9.60;;;;;;;4.64;82.75;101438.75;51152;1277;1016455;-64
2022/10/20 00:04:31;;;;;;;28.90;10.20;;;;;;;4.60;82.75;101441.95;51158;1296;1016041;-64
2022/10/20 00:07:03;;;;;;;26.80;9.30;;;;;;;4.55;82.87;101444.91;51222;1306;1016497;-64
2022/10/20 00:09:35;;;;;;;26.50;10.90;;;;;;;4.51;82.91;101444.64;51169;1306;1016516;-64
2022/10/20 00:12:07;;;;;;;25.20;10.30;;;;;;;4.45;83.01;101454.17;51156;1285;1015920;-64
2022/10/20 00:14:40;;;;;;;32.40;14.00;;;;;;;4.41;82.99;101460.52;51148;1306;1016556;-64
2022/10/20 00:17:11;;;;;;;30.60;12.40;;;;;;;4.38;83.33;101453.98;51295;1298;1016645;-65
2022/10/20 00:19:47;;;;;;;32.20;12.00;;;;;;;4.34;83.47;101453.79;51223;1278;1016264;-63
2022/10/20 00:22:19;;;;;;;39.40;13.70;;;;;;;4.28;83.46;101447.04;51139;1285;1016504;-63
2022/10/20 00:24:51;;;;;;;32.90;12.50;;;;;;;4.23;83.41;101447.33;51226;1306;1016094;-64
2022/10/20 00:27:22;;;;;;;31.00;12.20;;;;;;;4.16;83.38;101437.89;51123;1306;1017289;-63
2022/10/20 00:29:55;;;;;;;28.80;12.40;;;;;;;4.10;83.35;101437.39;51227;1285;1017019;-64
2022/10/20 00:32:29;;;;;;;33.30;13.60;;;;;;;4.05;83.22;101434.75;51250;1306;1016731;-64
2022/10/20 00:35:00;;;;;;;29.70;13.20;;;;;;;4.02;83.31;101438.86;51254;1282;1016060;-64
2022/10/20 00:37:32;;;;;;;32.50;13.10;;;;;;;3.98;83.13;101438.18;51223;1306;1015779;-64
2022/10/20 00:40:04;;;;;;;37.20;14.80;;;;;;;3.94;83.12;101438.38;51196;1306;1016109;-64
2022/10/20 00:42:37;;;;;;;29.40;11.90;;;;;;;3.92;83.11;101435.23;51222;1306;1015868;-64
2022/10/20 00:45:14;;;;;;;30.20;12.10;;;;;;;3.89;83.09;101428.31;51165;1306;1016030;-63
2022/10/20 00:47:49;;;;;;;28.60;11.20;;;;;;;3.87;83.25;101430.84;51180;1283;1016750;-63
2022/10/20 00:50:26;;;;;;;31.60;11.80;;;;;;;3.85;83.28;101430.30;51138;1285;1015924;-63
2022/10/20 00:52:59;;;;;;;25.40;10.80;;;;;;;3.83;83.29;101431.81;51220;1285;1016365;-64
2022/10/20 00:55:34;;;;;;;24.80;10.60;;;;;;;3.81;83.27;101426.77;51268;1299;1016427;-64
2022/10/20 00:58:06;;;;;;;27.60;10.50;;;;;;;3.80;83.51;101430.88;51173;1306;1016061;-64
2022/10/20 01:00:40;;;;;;;26.10;10.40;;;;;;;3.80;83.58;101428.76;51197;1306;1016320;-64
2022/10/20 01:03:20;;;;;;;29.20;11.10;;;;;;;3.78;83.72;101429.80;51191;1306;1018808;-64
2022/10/20 01:05:52;;;;;;;33.20;13.30;;;;;;;3.75;83.66;101426.50;51135;1306;1016030;-64
2022/10/20 01:08:24;;;;;;;32.40;13.40;;;;;;;3.73;83.71;101424.30;51219;1306;1016536;-64
2022/10/20 01:11:05;;;;;;;26.30;10.90;;;;;;;3.69;83.67;101424.01;51188;1306;1016488;-63
2022/10/20 01:13:48;;;;;;;26.70;10.00;;;;;;;3.65;83.72;101421.82;51231;1285;1016010;-63
2022/10/20 01:16:26;;;;;;;31.10;12.50;;;;;;;3.61;83.72;101420.42;51235;1282;1016067;-64
2022/10/20 01:19:05;;;;;;;29.00;11.20;;;;;;;3.58;83.61;101418.32;51180;1306;1019213;-64
2022/10/20 01:22:09;;;;;;;30.20;9.90;;;;;;;3.55;83.51;101419.59;51181;1306;1017306;-63
2022/10/20 01:25:01;;;;;;;22.80;8.80;;;;;;;3.51;83.54;101412.91;51030;1312;1016361;-63
2022/10/20 01:27:38;;;;;;;22.00;7.80;;;;;;;3.50;83.56;101404.55;50958;1312;1016232;-63
2022/10/20 01:30:17;;;;;;;19.30;7.60;;;;;;;3.49;83.64;101405.51;51177;1312;1016246;-63
2022/10/20 01:33:03;;;;;;;23.70;8.00;;;;;;;3.48;83.70;101403.92;51007;1287;1018285;-63
2022/10/20 01:35:48;;;;;;;22.30;7.50;;;;;;;3.46;83.83;101406.39;51002;1312;1015600;-63
2022/10/20 01:38:36;;;;;;;21.70;6.80;;;;;;;3.46;83.98;101409.06;51167;1312;1015943;-63
2022/10/20 01:41:15;;;;;;;19.70;6.60;;;;;;;3.41;83.84;101405.16;51070;1288;1016352;-63
2022/10/20 01:43:49;;;;;;;22.00;7.70;;;;;;;3.36;83.87;101402.11;50957;1312;1015815;-63
2022/10/20 01:46:24;;;;;;;22.30;7.00;;;;;;;3.32;83.88;101401.02;51065;1288;1015915;-64
2022/10/20 01:48:57;;;;;;;24.00;7.10;;;;;;;3.28;84.02;101403.86;51060;1312;1021251;-63
2022/10/20 01:51:31;;;;;;;21.80;7.70;;;;;;;3.25;83.91;101409.80;51170;1288;1016587;-63
2022/10/20 01:54:03;;;;;;;22.70;8.20;;;;;;;3.21;83.96;101403.36;50956;1312;1016370;-63
2022/10/20 01:56:46;;;;;;;20.00;7.10;;;;;;;3.19;83.94;101407.79;51067;1288;1015880;-62
2022/10/20 01:59:27;;;;;;;30.20;8.80;;;;;;;3.16;83.74;101410.39;51070;1288;1015873;-63
2022/10/20 02:02:12;;;;;;;21.80;7.40;;;;;;;3.11;83.70;101409.77;51020;1288;1016513;-65
2022/10/20 02:05:01;;;;;;;22.60;8.00;;;;;;;3.07;83.57;101407.83;51292;1306;1016390;-63
2022/10/20 02:07:35;;;;;;;19.40;6.60;;;;;;;3.00;83.37;101399.58;51193;1290;1016409;-63
2022/10/20 02:10:13;;;;;;;19.60;5.80;;;;;;;2.96;83.33;101402.52;51231;1306;1015980;-63
2022/10/20 02:12:52;;;;;;;16.70;6.30;;;;;;;2.93;83.42;101400.08;51283;1306;1016494;-63
2022/10/20 02:15:27;;;;;;;19.70;6.60;;;;;;;2.90;83.34;101396.63;51146;1306;1015676;-63
2022/10/20 02:18:05;;;;;;;18.40;5.90;;;;;;;2.87;83.41;101400.80;51135;1283;1019905;-63
2022/10/20 02:20:38;;;;;;;15.30;5.10;;;;;;;2.84;83.33;101401.52;51170;1306;1016011;-63
2022/10/20 02:23:10;;;;;;;17.10;5.90;;;;;;;2.82;83.30;101401.14;51295;1285;1016413;-63
2022/10/20 02:25:42;;;;;;;15.20;5.40;;;;;;;2.80;83.15;101404.45;51272;1298;1015738;-63
2022/10/20 02:28:17;;;;;;;18.30;5.60;;;;;;;2.78;83.16;101406.52;51207;1283;1016803;-63
2022/10/20 02:30:49;;;;;;;17.90;6.20;;;;;;;2.75;83.13;101405.72;51145;1306;1016313;-63
2022/10/20 02:33:22;;;;;;;17.50;6.20;;;;;;;2.71;83.07;101409.66;51134;1282;1017730;-63
2022/10/20 02:35:58;;;;;;;19.70;6.90;;;;;;;2.68;83.07;101408.09;51238;1306;1018245;-63
2022/10/20 02:38:31;;;;;;;19.80;6.20;;;;;;;2.66;83.03;101410.94;51272;1297;1016419;-63
2022/10/20 02:41:02;;;;;;;17.90;6.30;;;;;;;2.62;83.07;101412.84;51163;1306;1016010;-63
2022/10/20 02:43:34;;;;;;;21.20;7.30;;;;;;;2.58;82.98;101414.19;51251;1285;1015801;-63
2022/10/20 02:46:05;;;;;;;20.00;6.50;;;;;;;2.55;82.96;101414.26;51213;1306;1016383;-63
2022/10/20 02:48:38;;;;;;;21.00;8.10;;;;;;;2.51;82.83;101416.63;51151;1285;1019937;-63
2022/10/20 02:51:10;;;;;;;18.70;7.10;;;;;;;2.47;82.85;101414.27;51149;1285;1016204;-63
2022/10/20 02:53:42;;;;;;;17.10;6.50;;;;;;;2.42;82.87;101412.31;51198;1283;1016503;-62
2022/10/20 02:56:14;;;;;;;20.50;6.80;;;;;;;2.37;82.64;101413.11;51117;1306;1016440;-62
2022/10/20 02:58:46;;;;;;;14.40;5.10;;;;;;;2.31;82.72;101415.64;51175;1285;1016398;-62
2022/10/20 03:01:17;;;;;;;18.20;6.30;;;;;;;2.28;82.73;101409.48;51133;1306;1015894;-62
2022/10/20 03:03:48;;;;;;;17.20;6.80;;;;;;;2.24;82.67;101409.80;51299;1306;1016537;-62
2022/10/20 03:06:20;;;;;;;19.70;6.60;;;;;;;2.21;82.63;101415.71;51262;1306;1016014;-63
2022/10/20 03:08:52;;;;;;;17.30;5.70;;;;;;;2.17;82.61;101409.02;51100;1306;1015838;-63
2022/10/20 03:11:24;;;;;;;17.70;6.20;;;;;;;2.14;82.55;101408.86;51109;1306;1016497;-62
2022/10/20 03:13:56;;;;;;;16.60;5.80;;;;;;;2.12;82.57;101408.08;51119;1278;1015981;-63
2022/10/20 03:16:27;;;;;;;18.50;6.70;;;;;;;2.09;82.55;101408.48;51236;1277;1016116;-62
2022/10/20 03:18:59;;;;;;;19.40;6.20;;;;;;;2.06;82.66;101404.61;51266;1306;1015992;-63
2022/10/20 03:21:31;;;;;;;21.30;7.90;;;;;;;2.04;82.68;101406.11;51246;1278;1016003;-62
2022/10/20 03:24:03;;;;;;;37.20;12.30;;;;;;;2.03;82.68;101407.53;51189;1306;1016304;-62
2022/10/20 03:26:35;;;;;;;62.60;19.50;;;;;;;2.00;82.69;101409.11;51252;1282;1016084;-63
2022/10/20 03:29:07;;;;;;;71.50;24.60;;;;;;;1.97;82.79;101409.48;51146;1306;1016447;-62
2022/10/20 03:31:38;;;;;;;70.10;24.80;;;;;;;1.94;82.81;101417.67;51117;1285;1015868;-62
2022/10/20 03:34:11;;;;;;;64.80;22.20;;;;;;;1.91;82.85;101422.77;51104;1292;1019050;-62
2022/10/20 03:36:44;;;;;;;62.30;20.90;;;;;;;1.88;82.87;101422.77;51171;1306;1016453;-63
2022/10/20 03:39:15;;;;;;;57.70;22.00;;;;;;;1.85;82.83;101427.57;51236;1306;1016210;-63
2022/10/20 03:41:47;;;;;;;55.80;21.00;;;;;;;1.82;82.89;101433.45;51179;1306;1016420;-63
2022/10/20 03:44:18;;;;;;;51.10;16.90;;;;;;;1.79;82.75;101432.83;51181;1283;1017430;-63
2022/10/20 03:46:50;;;;;;;34.50;12.90;;;;;;;1.76;82.75;101431.17;51327;1291;1016757;-63
2022/10/20 03:49:22;;;;;;;33.30;10.40;;;;;;;1.76;82.84;101433.61;51192;1306;1015892;-63
2022/10/20 03:51:54;;;;;;;25.90;9.80;;;;;;;1.74;82.68;101434.78;51138;1306;1016048;-63
2022/10/20 03:54:26;;;;;;;24.00;9.50;;;;;;;1.72;82.77;101434.23;51191;1285;1016243;-62
2022/10/20 03:56:57;;;;;;;28.80;9.70;;;;;;;1.68;82.70;101429.90;51175;1298;1016254;-63
2022/10/20 03:59:29;;;;;;;24.60;9.10;;;;;;;1.66;82.63;101422.89;51158;1301;1016548;-63
2022/10/20 04:02:01;;;;;;;25.50;9.40;;;;;;;1.62;82.83;101427.36;51146;1282;1016291;-63
2022/10/20 04:04:32;;;;;;;23.10;9.40;;;;;;;1.60;82.91;101423.59;51200;1307;1015845;-63
2022/10/20 04:07:04;;;;;;;23.80;8.30;;;;;;;1.59;83.03;101421.23;51286;1306;1015550;-63
2022/10/20 04:09:36;;;;;;;23.40;8.00;;;;;;;1.58;83.07;101420.83;51143;1306;1016171;-63
2022/10/20 04:12:07;;;;;;;23.00;8.00;;;;;;;1.59;83.09;101416.04;51071;1306;1016295;-63
2022/10/20 04:14:39;;;;;;;23.00;8.70;;;;;;;1.60;83.17;101408.95;51156;1306;1015825;-63
2022/10/20 04:17:11;;;;;;;21.70;8.10;;;;;;;1.60;83.28;101408.48;51122;1291;1018111;-63
2022/10/20 04:19:43;;;;;;;24.20;8.40;;;;;;;1.59;83.42;101408.02;51219;1306;1016003;-63
2022/10/20 04:22:15;;;;;;;24.70;8.40;;;;;;;1.60;83.51;101412.41;51196;1284;1015817;-62
2022/10/20 04:24:48;;;;;;;23.70;7.60;;;;;;;1.60;83.60;101412.11;51219;1306;1016232;-62
2022/10/20 04:27:20;;;;;;;23.50;7.20;;;;;;;1.61;83.67;101413.52;51212;1306;1016023;-62
2022/10/20 04:29:52;;;;;;;22.50;7.10;;;;;;;1.59;83.73;101416.42;51146;1291;1019788;-62
2022/10/20 04:32:24;;;;;;;23.50;6.20;;;;;;;1.58;83.68;101412.34;51068;1282;1015957;-62
2022/10/20 04:34:56;;;;;;;20.80;6.20;;;;;;;1.56;83.55;101413.11;51179;1278;1016156;-63
2022/10/20 04:37:28;;;;;;;22.40;5.20;;;;;;;1.53;83.53;101407.99;51214;1285;1016610;-62
2022/10/20 04:39:59;;;;;;;17.10;5.10;;;;;;;1.52;83.50;101401.32;51122;1306;1016426;-62
2022/10/20 04:42:32;;;;;;;17.20;5.50;;;;;;;1.51;83.41;101398.09;51821;1285;1016518;-63
2022/10/20 04:45:03;;;;;;;20.10;4.90;;;;;;;1.50;83.35;101392.90;51228;1281;1015813;-61
2022/10/20 04:47:36;;;;;;;18.50;4.50;;;;;;;1.47;83.31;101390.92;51157;1285;1016076;-61
2022/10/20 04:50:09;;;;;;;16.20;5.00;;;;;;;1.44;83.30;101392.88;51166;1285;1016526;-62
2022/10/20 04:52:40;;;;;;;16.80;4.60;;;;;;;1.42;83.28;101389.80;51122;1306;1015978;-64
2022/10/20 04:55:12;;;;;;;15.60;4.80;;;;;;;1.38;83.24;101386.18;51206;1306;1016088;-62
2022/10/20 04:57:44;;;;;;;13.40;3.80;;;;;;;1.35;83.12;101390.59;51094;1306;1015696;-62
2022/10/20 05:00:17;;;;;;;15.70;5.40;;;;;;;1.32;83.05;101387.89;51134;1285;1016066;-62
2022/10/20 05:02:49;;;;;;;15.70;4.50;;;;;;;1.29;83.00;101386.95;51103;1284;1016725;-63
2022/10/20 05:05:20;;;;;;;19.10;5.00;;;;;;;1.26;83.02;101384.73;51187;1284;1015986;-63
2022/10/20 05:07:52;;;;;;;17.20;5.10;;;;;;;1.24;83.04;101384.73;51187;1306;1016804;-62
2022/10/20 05:10:24;;;;;;;15.70;4.80;;;;;;;1.21;82.95;101376.70;51156;1277;1016809;-62
2022/10/20 05:12:56;;;;;;;20.70;5.80;;;;;;;1.18;83.01;101381.09;51224;1306;1016236;-62
2022/10/20 05:15:27;;;;;;;21.40;5.40;;;;;;;1.16;82.99;101378.57;51178;1290;1018677;-63
2022/10/20 05:18:03;;;;;;;18.90;4.90;;;;;;;1.14;83.00;101378.02;51142;1306;1017718;-62
2022/10/20 05:20:35;;;;;;;18.20;5.80;;;;;;;1.12;83.03;101380.52;51236;1284;1016389;-62
2022/10/20 05:23:07;;;;;;;16.70;5.50;;;;;;;1.11;83.00;101380.91;51280;1306;1018317;-62
2022/10/20 05:25:40;;;;;;;23.10;7.10;;;;;;;1.10;83.07;101382.31;51204;1285;1015787;-62
2022/10/20 05:28:11;;;;;;;23.10;7.50;;;;;;;1.08;83.26;101378.23;51224;1306;1015835;-62
2022/10/20 05:30:43;;;;;;;23.70;6.70;;;;;;;1.07;83.31;101377.67;51272;1306;1016849;-62
2022/10/20 05:33:15;;;;;;;33.00;8.10;;;;;;;1.06;83.31;101377.83;51249;1286;1016202;-61
2022/10/20 05:35:46;;;;;;;22.50;8.00;;;;;;;1.07;83.35;101381.20;51157;1306;1018700;-61
2022/10/20 05:38:17;;;;;;;22.00;8.70;;;;;;;1.06;83.40;101377.89;51176;1306;1016458;-60
2022/10/20 05:40:49;;;;;;;28.60;12.50;;;;;;;1.06;83.38;101379.54;51249;1306;1016518;-61
2022/10/20 05:43:20;;;;;;;32.10;13.00;;;;;;;1.07;83.53;101378.69;51149;1285;1016381;-61
2022/10/20 05:45:56;;;;;;;28.40;13.20;;;;;;;1.08;83.68;101379.73;51255;1306;1016350;-61
2022/10/20 05:48:28;;;;;;;35.10;17.20;;;;;;;1.09;83.71;101379.41;51187;1277;1015837;-61
2022/10/20 05:51:09;;;;;;;34.00;16.00;;;;;;;1.10;83.87;101384.20;51249;1306;1015836;-61
2022/10/20 05:53:42;;;;;;;33.50;13.50;;;;;;;1.11;83.97;101383.19;51141;1302;1015897;-61
2022/10/20 05:56:16;;;;;;;38.90;14.80;;;;;;;1.13;84.13;101386.03;51207;1277;1016058;-61
2022/10/20 05:58:48;;;;;;;34.20;13.70;;;;;;;1.16;84.20;101386.52;51194;1285;1015969;-61
2022/10/20 06:01:23;;;;;;;26.80;12.10;;;;;;;1.19;84.42;101386.91;51222;1294;1016503;-61
2022/10/20 06:03:56;;;;;;;28.90;10.40;;;;;;;1.23;84.51;101395.65;51295;1306;1016477;-60
2022/10/20 06:06:30;;;;;;;32.30;13.40;;;;;;;1.25;84.65;101397.45;51310;1277;1016190;-61
2022/10/20 06:09:04;;;;;;;24.60;10.50;;;;;;;1.28;84.72;101398.56;51151;1306;1016271;-61
2022/10/20 06:11:37;;;;;;;28.10;10.60;;;;;;;1.32;84.86;101396.77;51213;1309;1015666;-62
2022/10/20 06:14:10;;;;;;;26.90;8.30;;;;;;;1.37;85.15;101396.88;51274;1306;1016438;-61
2022/10/20 06:16:42;;;;;;;26.90;8.70;;;;;;;1.45;85.68;101395.41;51180;1285;1016445;-61
2022/10/20 06:19:13;;;;;;;28.40;11.10;;;;;;;1.54;86.06;101394.39;51181;1283;1016373;-61
2022/10/20 06:21:45;;;;;;;28.40;10.10;;;;;;;1.62;86.37;101399.76;51286;1306;1016164;-61
2022/10/20 06:24:17;;;;;;;26.50;9.20;;;;;;;1.70;86.38;101401.58;51267;1281;1016328;-61
2022/10/20 06:26:50;;;;;;;24.30;9.70;;;;;;;1.77;86.39;101406.24;51209;1301;1016010;-62
2022/10/20 06:29:22;;;;;;;28.10;9.90;;;;;;;1.83;86.55;101400.34;51230;1306;1018964;-61
2022/10/20 06:31:55;;;;;;;26.60;9.40;;;;;;;1.88;86.47;101394.14;51223;1306;1016181;-61
2022/10/20 06:34:28;;;;;;;21.30;8.60;;;;;;;1.94;86.68;101391.63;51121;1306;1016344;-62
2022/10/20 06:36:59;;;;;;;24.20;8.40;;;;;;;1.99;86.93;101396.89;51212;1309;1016465;-61
2022/10/20 06:39:31;;;;;;;25.30;9.20;;;;;;;2.03;86.78;101397.77;51271;1292;1016731;-61
2022/10/20 06:42:08;;;;;;;30.00;10.40;;;;;;;2.05;86.84;101396.19;51210;1298;1016394;-61
2022/10/20 06:44:39;;;;;;;28.90;11.70;;;;;;;2.09;86.92;101397.77;51225;1285;1016157;-61
2022/10/20 06:47:11;;;;;;;34.50;12.30;;;;;;;2.15;87.27;101395.64;51121;1280;1015728;-61
2022/10/20 06:49:42;;;;;;;33.10;12.90;;;;;;;2.22;87.62;101394.14;51198;1306;1016521;-61
2022/10/20 06:52:14;;;;;;;34.20;12.80;;;;;;;2.29;87.91;101398.86;51199;1306;1016280;-61
2022/10/20 06:54:46;;;;;;;41.10;13.60;;;;;;;2.36;88.07;101394.38;51238;1306;1016708;-61
2022/10/20 06:57:20;;;;;;;33.70;12.90;;;;;;;2.44;88.19;101393.98;51199;1306;1016011;-61
2022/10/20 06:59:52;;;;;;;35.70;12.00;;;;;;;2.51;88.14;101396.94;51224;1284;1016350;-60
2022/10/20 07:02:23;;;;;;;29.20;11.30;;;;;;;2.60;88.79;101398.11;51121;1312;1016467;-62
2022/10/20 07:04:55;;;;;;;33.60;12.00;;;;;;;2.69;88.85;101408.64;51169;1306;1016580;-61
2022/10/20 07:07:27;;;;;;;28.60;9.90;;;;;;;2.78;89.19;101404.69;51142;1306;1016428;-62
2022/10/20 07:09:59;;;;;;;35.00;10.60;;;;;;;2.88;89.19;101406.94;51228;1307;1016081;-62
2022/10/20 07:12:30;;;;;;;27.30;10.40;;;;;;;2.97;89.43;101405.58;51224;1281;1016347;-61
2022/10/20 07:15:02;;;;;;;25.10;9.70;;;;;;;3.06;89.64;101412.80;51155;1278;1016280;-61
2022/10/20 07:17:33;;;;;;;26.90;11.20;;;;;;;3.16;89.86;101414.42;51201;1306;1015656;-61
2022/10/20 07:20:07;;;;;;;28.90;11.60;;;;;;;3.25;90.03;101413.67;51223;1285;1016801;-61
2022/10/20 07:22:39;;;;;;;26.70;10.20;;;;;;;3.36;90.22;101412.91;51218;1285;1017604;-61
2022/10/20 07:25:11;;;;;;;27.20;9.90;;;;;;;3.46;90.51;101408.28;51212;1307;1016046;-62
2022/10/20 07:27:42;;;;;;;26.40;10.20;;;;;;;3.57;90.86;101408.61;51119;1306;1017545;-62
2022/10/20 07:30:16;;;;;;;26.20;9.50;;;;;;;3.68;90.94;101405.40;51171;1285;1016406;-61
2022/10/20 07:32:48;;;;;;;29.40;8.80;;;;;;;3.80;90.80;101407.14;51239;1307;1016220;-62
2022/10/20 07:35:19;;;;;;;21.00;8.80;;;;;;;3.89;90.74;101403.13;51252;1283;1015958;-62
2022/10/20 07:37:51;;;;;;;27.10;8.50;;;;;;;3.99;90.91;101401.95;51236;1312;1016869;-61
2022/10/20 07:40:23;;;;;;;21.90;8.50;;;;;;;4.08;90.85;101399.42;51185;1281;1015758;-62
2022/10/20 07:42:55;;;;;;;23.30;8.80;;;;;;;4.19;91.09;101398.39;51163;1306;1016480;-63
2022/10/20 07:45:27;;;;;;;28.20;9.70;;;;;;;4.29;91.33;101395.77;51191;1285;1016452;-61
2022/10/20 07:47:59;;;;;;;28.80;10.80;;;;;;;4.39;91.40;101399.48;51147;1306;1018642;-62
2022/10/20 07:50:31;;;;;;;22.90;8.40;;;;;;;4.50;91.61;101396.77;51148;1306;1016352;-62
2022/10/20 07:53:02;;;;;;;19.80;8.10;;;;;;;4.61;91.61;101392.08;51378;1306;1016177;-62
2022/10/20 07:55:34;;;;;;;22.00;7.40;;;;;;;4.72;91.49;101394.33;51200;1310;1016976;-62
2022/10/20 07:58:06;;;;;;;27.20;9.20;;;;;;;4.82;91.84;101389.16;51249;1288;1019502;-62
2022/10/20 08:00:38;;;;;;;23.00;9.00;;;;;;;4.93;91.87;101388.16;51143;1306;1015867;-62
2022/10/20 08:03:10;;;;;;;24.70;8.20;;;;;;;5.04;91.91;101385.52;51198;1281;1016470;-61
2022/10/20 08:05:42;;;;;;;23.50;8.80;;;;;;;5.13;91.83;101386.20;51277;1306;1016554;-61
2022/10/20 08:08:15;;;;;;;22.20;8.00;;;;;;;5.24;92.34;101381.71;51324;1306;1016501;-61
2022/10/20 08:10:47;;;;;;;21.30;8.10;;;;;;;5.37;92.61;101378.92;51243;1306;1016420;-62
2022/10/20 08:13:18;;;;;;;25.20;8.10;;;;;;;5.47;92.23;101378.14;51258;1306;1016024;-61
2022/10/20 08:15:50;;;;;;;24.40;7.10;;;;;;;5.58;92.34;101380.52;51179;1306;1015927;-62
2022/10/20 08:18:22;;;;;;;23.40;7.60;;;;;;;5.71;92.72;101378.67;51163;1306;1019488;-62
2022/10/20 08:20:54;;;;;;;19.70;7.00;;;;;;;5.86;92.44;101373.80;51147;1306;1015903;-62
2022/10/20 08:23:27;;;;;;;21.40;6.70;;;;;;;5.98;91.97;101375.92;51264;1284;1015813;-62
2022/10/20 08:25:59;;;;;;;23.20;7.80;;;;;;;6.08;91.76;101377.73;51309;1306;1015770;-62
2022/10/20 08:28:31;;;;;;;23.50;6.50;;;;;;;6.16;91.52;101378.07;51249;1306;1018869;-61
2022/10/20 08:31:05;;;;;;;20.60;7.20;;;;;;;6.24;91.30;101376.11;51247;1306;1016493;-61
2022/10/20 08:33:38;;;;;;;19.70;6.80;;;;;;;6.33;91.47;101375.31;51251;1306;1016400;-60
2022/10/20 08:36:12;;;;;;;20.30;7.40;;;;;;;6.45;91.60;101370.91;51149;1306;1016205;-61
2022/10/20 08:38:45;;;;;;;22.50;7.50;;;;;;;6.57;91.55;101371.33;51211;1285;1016108;-61
2022/10/20 08:41:21;;;;;;;21.50;5.60;;;;;;;6.68;91.56;101376.60;51150;1290;1016082;-60
2022/10/20 08:43:56;;;;;;;22.40;5.70;;;;;;;6.78;91.24;101376.40;51152;1285;1016323;-61
2022/10/20 08:46:32;;;;;;;16.50;4.80;;;;;;;6.85;90.80;101379.73;51239;1307;1016142;-63
2022/10/20 08:49:05;;;;;;;19.80;6.70;;;;;;;6.94;90.63;101379.64;51226;1306;1016452;-63
2022/10/20 08:51:39;;;;;;;14.30;5.70;;;;;;;7.04;90.65;101378.23;51173;1307;1015551;-63
2022/10/20 08:54:16;;;;;;;19.80;5.90;;;;;;;7.15;90.54;101372.72;51181;1306;1016062;-62
2022/10/20 08:56:48;;;;;;;19.10;5.80;;;;;;;7.22;90.18;101372.82;51201;1285;1016397;-63
2022/10/20 08:59:29;;;;;;;19.60;5.30;;;;;;;7.27;90.13;101370.15;51263;1282;1016560;-62
2022/10/20 09:02:02;;;;;;;18.20;5.30;;;;;;;7.35;90.01;101370.70;51222;1291;1016402;-62
2022/10/20 09:04:41;;;;;;;16.70;5.50;;;;;;;7.40;89.66;101370.99;51249;1285;1016479;-63
2022/10/20 09:07:19;;;;;;;17.50;5.00;;;;;;;7.45;89.53;101367.95;51223;1284;1016435;-63
2022/10/20 09:09:52;;;;;;;19.40;5.50;;;;;;;7.52;89.40;101363.41;51294;1306;1019858;-63
2022/10/20 09:12:24;;;;;;;15.00;4.30;;;;;;;7.57;89.24;101363.70;51152;1306;1016675;-63
2022/10/20 09:14:57;;;;;;;16.10;4.70;;;;;;;7.63;89.02;101359.11;51214;1285;1015733;-63
2022/10/20 09:17:29;;;;;;;17.70;5.70;;;;;;;7.77;89.31;101358.16;51307;1306;1016170;-63
2022/10/20 09:20:02;;;;;;;14.50;4.00;;;;;;;7.87;89.06;101356.80;51219;1307;1015915;-63
2022/10/20 09:22:35;;;;;;;18.10;5.50;;;;;;;7.93;88.83;101357.44;51167;1288;1016401;-63
2022/10/20 09:25:12;;;;;;;15.80;4.60;;;;;;;8.00;88.59;101357.60;51205;1306;1017071;-63
2022/10/20 09:27:45;;;;;;;19.10;5.50;;;;;;;8.04;88.30;101357.89;51168;1306;1016312;-63
2022/10/20 09:30:21;;;;;;;15.20;5.10;;;;;;;8.05;88.05;101353.32;51290;1307;1016187;-63
2022/10/20 09:32:54;;;;;;;15.70;4.90;;;;;;;8.07;88.19;101356.64;51295;1306;1016430;-63
2022/10/20 09:35:31;;;;;;;14.60;3.70;;;;;;;8.13;87.98;101353.92;51283;1288;1016481;-63
2022/10/20 09:38:17;;;;;;;9.80;2.40;;;;;;;8.27;87.96;101353.45;51196;1306;1016406;-63
2022/10/20 09:41:05;;;;;;;15.70;3.70;;;;;;;8.40;87.02;101346.02;51217;1308;1018200;-63
2022/10/20 09:43:41;;;;;;;11.20;2.90;;;;;;;8.51;86.82;101341.11;51197;1306;1016202;-63
2022/10/20 09:46:17;;;;;;;10.80;2.90;;;;;;;8.63;86.75;101346.63;51142;1312;1016119;-63
2022/10/20 09:48:50;;;;;;;14.50;4.00;;;;;;;8.73;86.31;101344.34;51228;1306;1016325;-63
2022/10/20 09:51:25;;;;;;;8.60;2.20;;;;;;;8.80;85.86;101341.10;51264;1298;1016467;-63
2022/10/20 09:54:01;;;;;;;10.40;1.80;;;;;;;8.86;85.24;101339.30;51217;1283;1016137;-62
2022/10/20 09:56:35;;;;;;;8.20;1.60;;;;;;;8.90;84.78;101335.09;51212;1285;1015865;-63
2022/10/20 09:59:18;;;;;;;15.00;2.50;;;;;;;8.96;84.86;101333.81;51154;1288;1015951;-63
2022/10/20 10:01:58;;;;;;;10.20;2.10;;;;;;;9.01;84.72;101332.02;51206;1310;1018640;-63
2022/10/20 10:04:36;;;;;;;10.90;2.40;;;;;;;9.07;84.39;101332.39;51234;1306;1016496;-63
2022/10/20 10:07:32;;;;;;;8.50;2.10;;;;;;;9.16;84.38;101329.98;51201;1283;1019461;-63
2022/10/20 10:10:05;;;;;;;11.60;1.70;;;;;;;9.24;83.81;101325.86;51149;1306;1015580;-64
2022/10/20 13:17:48;;;;;;;15.70;3.00;;;;;;;10.85;67.87;101074.61;51177;1283;1016627;-65
2022/10/20 13:20:27;;;;;;;10.80;1.90;;;;;;;10.87;67.84;101070.86;51222;1306;1016259;-64
2022/10/20 13:22:59;;;;;;;13.00;2.40;;;;;;;10.87;67.80;101071.36;51248;1306;1015931;-62
2022/10/20 13:25:40;;;;;;;19.30;3.20;;;;;;;10.85;67.47;101069.84;51235;1281;1015609;-62
2022/10/20 13:28:21;;;;;;;10.70;2.00;;;;;;;10.85;67.18;101066.27;51318;1297;1015652;-64
2022/10/20 13:31:15;;;;;;;10.60;2.40;;;;;;;10.88;66.78;101065.34;51229;1298;1016115;-65
2022/10/20 13:34:02;;;;;;;12.20;2.40;;;;;;;10.91;67.05;101066.74;51241;1306;1015640;-66
2022/10/20 13:36:48;;;;;;;10.30;1.50;;;;;;;10.91;67.22;101064.73;51244;1306;1016361;-64
2022/10/20 13:39:30;;;;;;;8.30;1.80;;;;;;;10.91;67.07;101066.30;51236;1306;1016188;-64
2022/10/20 13:42:12;;;;;;;8.90;1.50;;;;;;;10.92;66.56;101066.68;51253;1285;1016317;-64
2022/10/20 13:44:54;;;;;;;9.90;1.80;;;;;;;10.90;66.01;101060.85;51211;1290;1016430;-64
2022/10/20 13:47:46;;;;;;;10.70;2.10;;;;;;;10.89;65.59;101051.79;51258;1306;1015494;-64
2022/10/20 13:50:21;;;;;;;11.40;1.50;;;;;;;10.89;65.32;101053.79;51076;1312;1016521;-64
2022/10/20 13:52:57;;;;;;;11.30;1.90;;;;;;;10.88;65.39;101049.11;51058;1291;1016249;-64
2022/10/20 13:55:31;;;;;;;11.80;2.00;;;;;;;10.88;65.26;101050.01;51075;1297;1019195;-64
2022/10/20 13:58:08;;;;;;;12.70;2.80;;;;;;;10.89;65.08;101046.38;51033;1312;1016047;-64
2022/10/20 14:00:40;;;;;;;13.20;1.90;;;;;;;10.89;65.08;101041.77;51017;1286;1016005;-65
2022/10/20 14:03:18;;;;;;;10.50;1.70;;;;;;;10.87;64.70;101037.53;51065;1312;1016133;-65
2022/10/20 14:05:53;;;;;;;9.40;1.80;;;;;;;10.85;64.35;101034.10;51080;1290;1016394;-64
2022/10/20 14:08:25;;;;;;;12.30;2.50;;;;;;;10.85;64.31;101031.23;51105;1287;1016347;-65
2022/10/20 14:11:00;;;;;;;6.00;1.60;;;;;;;10.84;64.12;101032.71;51028;1290;1016613;-64
2022/10/20 14:13:34;;;;;;;7.70;1.40;;;;;;;10.83;63.84;101029.54;50985;1314;1018221;-63
2022/10/20 14:16:15;;;;;;;9.40;1.80;;;;;;;10.82;63.70;101030.38;51107;1312;1016440;-65
2022/10/20 14:19:04;;;;;;;12.50;2.30;;;;;;;10.81;63.87;101028.35;51252;1312;1015660;-65
2022/10/20 14:21:43;;;;;;;10.60;2.30;;;;;;;10.79;63.61;101029.94;51238;1312;1016433;-65
2022/10/20 14:24:25;;;;;;;12.90;3.00;;;;;;;10.78;63.72;101026.08;51107;1312;1017437;-65
2022/10/20 14:26:58;;;;;;;12.30;4.00;;;;;;;10.77;63.54;101025.98;51231;1312;1016004;-65
2022/10/20 14:29:33;;;;;;;10.70;2.90;;;;;;;10.75;62.92;101021.48;51412;1290;1016377;-65
2022/10/20 14:32:05;;;;;;;8.80;2.00;;;;;;;10.74;62.67;101021.86;51359;1284;1015773;-65
2022/10/20 14:34:52;;;;;;;11.40;3.50;;;;;;;10.72;63.06;101017.94;51335;1306;1016507;-65
2022/10/20 14:37:30;;;;;;;12.00;1.80;;;;;;;10.72;62.95;101014.71;51346;1283;1015932;-65
2022/10/20 14:40:05;;;;;;;7.10;1.40;;;;;;;10.69;62.59;101011.79;51375;1306;1015749;-64
2022/10/20 14:42:37;;;;;;;9.90;2.70;;;;;;;10.67;62.97;101012.66;51425;1306;1019846;-65
2022/10/20 14:45:21;;;;;;;20.70;3.70;;;;;;;10.65;62.52;101004.05;51348;1306;1017832;-65